sensor_id;sensor_type;location;lat;lon;timestamp;pressure;altitude;pressure_sealevel;temperature;humidity
44385;BME280;30101;32.778;34.994;2022-08-18T00:00:05;96881.34;;;23.49;69.75
44385;BME280;30101;32.778;34.994;2022-08-18T00:05:14;96881.69;;;23.48;70.05
44385;BME280;30101;32.778;34.994;2022-08-18T00:10:18;96883.28;;;23.49;70.09
44385;BME280;30101;32.778;34.994;2022-08-18T00:15:23;96884.72;;;23.46;70.00
44385;BME280;30101;32.778;34.994;2022-08-18T00:20:32;96895.63;;;23.46;70.17
44385;BME280;30101;32.778;34.994;2022-08-18T00:25:36;96896.25;;;23.43;70.29
44385;BME280;30101;32.778;34.994;2022-08-18T00:30:39;96895.75;;;23.41;70.41
44385;BME280;30101;32.778;34.994;2022-08-18T00:35:43;96898.81;;;23.39;70.47
44385;BME280;30101;32.778;34.994;2022-08-18T00:40:49;96895.44;;;23.42;70.56
44385;BME280;30101;32.778;34.994;2022-08-18T00:45:52;96896.09;;;23.48;70.41
44385;BME280;30101;32.778;34.994;2022-08-18T00:50:59;96891.63;;;23.52;70.46
44385;BME280;30101;32.778;34.994;2022-08-18T00:56:11;96898.84;;;23.57;70.33
44385;BME280;30101;32.778;34.994;2022-08-18T01:01:18;96897.13;;;23.61;70.41
44385;BME280;30101;32.778;34.994;2022-08-18T01:06:33;96899.72;;;23.66;70.54
44385;BME280;30101;32.778;34.994;2022-08-18T01:11:39;96896.38;;;23.69;70.33
44385;BME280;30101;32.778;34.994;2022-08-18T01:16:47;96894.44;;;23.69;70.29
44385;BME280;30101;32.778;34.994;2022-08-18T01:22:06;96895.56;;;23.68;70.55
44385;BME280;30101;32.778;34.994;2022-08-18T01:27:16;96896.69;;;23.67;70.89
44385;BME280;30101;32.778;34.994;2022-08-18T01:32:21;96894.59;;;23.64;70.75
44385;BME280;30101;32.778;34.994;2022-08-18T01:37:25;96894.91;;;23.63;70.89
44385;BME280;30101;32.778;34.994;2022-08-18T01:42:29;96885.91;;;23.62;71.10
44385;BME280;30101;32.778;34.994;2022-08-18T01:47:33;96891.66;;;23.61;70.99
44385;BME280;30101;32.778;34.994;2022-08-18T01:52:50;96887.66;;;23.58;71.00
44385;BME280;30101;32.778;34.994;2022-08-18T01:57:54;96888.78;;;23.57;70.83
44385;BME280;30101;32.778;34.994;2022-08-18T02:02:59;96890.28;;;23.63;70.95
44385;BME280;30101;32.778;34.994;2022-08-18T02:08:14;96878.53;;;23.63;71.05
44385;BME280;30101;32.778;34.994;2022-08-18T02:13:18;96881.09;;;23.59;70.99
44385;BME280;30101;32.778;34.994;2022-08-18T02:18:25;96880.47;;;23.62;71.23
44385;BME280;30101;32.778;34.994;2022-08-18T02:23:49;96878.03;;;23.61;71.00
44385;BME280;30101;32.778;34.994;2022-08-18T02:28:55;96875.97;;;23.58;71.05
44385;BME280;30101;32.778;34.994;2022-08-18T02:33:59;96881.22;;;23.54;71.32
44385;BME280;30101;32.778;34.994;2022-08-18T02:39:03;96884.59;;;23.51;71.14
44385;BME280;30101;32.778;34.994;2022-08-18T02:44:08;96873.63;;;23.42;71.54
44385;BME280;30101;32.778;34.994;2022-08-18T02:49:12;96875.69;;;23.37;71.49
44385;BME280;30101;32.778;34.994;2022-08-18T02:54:16;96876.78;;;23.27;71.57
44385;BME280;30101;32.778;34.994;2022-08-18T02:59:22;96884.78;;;23.24;71.89
44385;BME280;30101;32.778;34.994;2022-08-18T03:04:27;96876.91;;;23.22;71.91
44385;BME280;30101;32.778;34.994;2022-08-18T03:09:33;96879.16;;;23.20;72.04
44385;BME280;30101;32.778;34.994;2022-08-18T03:14:37;96883.63;;;23.16;72.16
44385;BME280;30101;32.778;34.994;2022-08-18T03:19:41;96881.22;;;23.14;72.19
44385;BME280;30101;32.778;34.994;2022-08-18T03:24:53;96887.16;;;23.17;72.20
44385;BME280;30101;32.778;34.994;2022-08-18T03:29:56;96893.06;;;23.19;72.18
44385;BME280;30101;32.778;34.994;2022-08-18T03:35:00;96892.47;;;23.22;72.01
44385;BME280;30101;32.778;34.994;2022-08-18T03:40:05;96891.53;;;23.26;72.26
44385;BME280;30101;32.778;34.994;2022-08-18T03:45:09;96891.25;;;23.36;72.05
44385;BME280;30101;32.778;34.994;2022-08-18T03:50:19;96891.47;;;23.49;71.94
44385;BME280;30101;32.778;34.994;2022-08-18T03:55:23;96885.72;;;23.59;71.76
44385;BME280;30101;32.778;34.994;2022-08-18T04:00:26;96887.09;;;23.70;71.59
44385;BME280;30101;32.778;34.994;2022-08-18T04:05:31;96885.19;;;23.79;71.27
44385;BME280;30101;32.778;34.994;2022-08-18T04:10:35;96878.78;;;23.84;71.15
44385;BME280;30101;32.778;34.994;2022-08-18T04:15:38;96882.78;;;23.86;70.95
44385;BME280;30101;32.778;34.994;2022-08-18T04:20:42;96883.44;;;23.92;71.06
44385;BME280;30101;32.778;34.994;2022-08-18T04:26:02;96875.44;;;24.04;70.65
44385;BME280;30101;32.778;34.994;2022-08-18T04:31:13;96889.78;;;24.27;69.99
44385;BME280;30101;32.778;34.994;2022-08-18T04:36:17;96889.16;;;24.47;69.85
44385;BME280;30101;32.778;34.994;2022-08-18T04:41:26;96872.78;;;24.65;69.25
44385;BME280;30101;32.778;34.994;2022-08-18T04:46:42;96877.91;;;24.66;69.01
44385;BME280;30101;32.778;34.994;2022-08-18T04:51:47;96877.91;;;24.66;69.13
44385;BME280;30101;32.778;34.994;2022-08-18T04:57:14;96872.94;;;24.68;68.53
44385;BME280;30101;32.778;34.994;2022-08-18T05:02:19;96878.88;;;24.70;68.42
44385;BME280;30101;32.778;34.994;2022-08-18T05:07:23;96890.13;;;24.78;68.25
44385;BME280;30101;32.778;34.994;2022-08-18T05:12:27;96867.44;;;24.86;67.87
44385;BME280;30101;32.778;34.994;2022-08-18T05:17:30;96885.44;;;24.95;67.94
44385;BME280;30101;32.778;34.994;2022-08-18T05:22:38;96886.06;;;25.10;67.78
44385;BME280;30101;32.778;34.994;2022-08-18T05:27:42;96889.53;;;25.36;66.84
44385;BME280;30101;32.778;34.994;2022-08-18T05:32:46;96897.06;;;25.86;66.09
44385;BME280;30101;32.778;34.994;2022-08-18T05:43:19;96894.44;;;26.82;63.69
44385;BME280;30101;32.778;34.994;2022-08-18T05:48:23;96887.25;;;28.97;58.19
44385;BME280;30101;32.778;34.994;2022-08-18T05:53:28;96886.16;;;31.64;52.49
44385;BME280;30101;32.778;34.994;2022-08-18T05:58:40;96896.53;;;31.93;52.25
44385;BME280;30101;32.778;34.994;2022-08-18T06:03:54;96885.53;;;33.95;48.67
44385;BME280;30101;32.778;34.994;2022-08-18T06:09:23;96895.75;;;35.33;46.29
44385;BME280;30101;32.778;34.994;2022-08-18T06:14:28;96889.53;;;34.67;47.90
44385;BME280;30101;32.778;34.994;2022-08-18T06:25:13;96895.59;;;34.21;49.56
44385;BME280;30101;32.778;34.994;2022-08-18T06:31:04;96897.13;;;33.64;50.46
44385;BME280;30101;32.778;34.994;2022-08-18T06:41:38;96894.94;;;35.29;46.73
44385;BME280;30101;32.778;34.994;2022-08-18T06:47:13;96887.78;;;35.25;45.87
44385;BME280;30101;32.778;34.994;2022-08-18T06:52:30;96891.88;;;34.61;46.83
44385;BME280;30101;32.778;34.994;2022-08-18T06:57:52;96897.69;;;33.39;48.96
44385;BME280;30101;32.778;34.994;2022-08-18T07:08:43;96898.13;;;31.26;51.88
44385;BME280;30101;32.778;34.994;2022-08-18T07:13:49;96888.44;;;30.58;52.75
44385;BME280;30101;32.778;34.994;2022-08-18T07:19:17;96887.44;;;30.12;53.22
44385;BME280;30101;32.778;34.994;2022-08-18T07:24:30;96887.09;;;29.81;54.29
44385;BME280;30101;32.778;34.994;2022-08-18T07:29:57;96888.09;;;29.73;54.17
44385;BME280;30101;32.778;34.994;2022-08-18T07:35:03;96878.50;;;29.67;54.33
44385;BME280;30101;32.778;34.994;2022-08-18T07:40:44;96879.47;;;29.75;53.94
44385;BME280;30101;32.778;34.994;2022-08-18T07:45:50;96879.22;;;29.80;53.96
44385;BME280;30101;32.778;34.994;2022-08-18T07:51:07;96878.66;;;29.90;53.89
44385;BME280;30101;32.778;34.994;2022-08-18T07:56:22;96870.56;;;30.13;53.56
44385;BME280;30101;32.778;34.994;2022-08-18T08:01:38;96871.53;;;30.40;53.21
44385;BME280;30101;32.778;34.994;2022-08-18T08:07:05;96870.38;;;30.60;52.46
44385;BME280;30101;32.778;34.994;2022-08-18T08:12:34;96865.72;;;30.80;52.15
44385;BME280;30101;32.778;34.994;2022-08-18T08:18:39;96869.25;;;31.00;51.94
44385;BME280;30101;32.778;34.994;2022-08-18T08:23:34;96863.13;;;31.10;52.05
44385;BME280;30101;32.778;34.994;2022-08-18T08:45:15;96854.22;;;31.40;51.09
44385;BME280;30101;32.778;34.994;2022-08-18T08:50:26;96849.00;;;31.58;50.34
44385;BME280;30101;32.778;34.994;2022-08-18T08:55:34;96851.09;;;31.64;50.18
44385;BME280;30101;32.778;34.994;2022-08-18T09:00:39;96850.66;;;31.62;50.41
44385;BME280;30101;32.778;34.994;2022-08-18T09:17:05;96845.25;;;31.24;50.84
44385;BME280;30101;32.778;34.994;2022-08-18T09:33:57;96838.78;;;30.93;50.54
44385;BME280;30101;32.778;34.994;2022-08-18T09:44:11;96826.53;;;30.52;51.18
44385;BME280;30101;32.778;34.994;2022-08-18T09:54:32;96826.44;;;30.29;51.37
44385;BME280;30101;32.778;34.994;2022-08-18T10:05:26;96845.66;;;30.25;51.23
44385;BME280;30101;32.778;34.994;2022-08-18T10:21:20;96830.91;;;29.82;51.87
44385;BME280;30101;32.778;34.994;2022-08-18T10:37:12;96827.19;;;29.75;52.07
44385;BME280;30101;32.778;34.994;2022-08-18T10:47:36;96811.50;;;29.60;51.96
44385;BME280;30101;32.778;34.994;2022-08-18T11:08:58;96817.84;;;29.48;52.72
44385;BME280;30101;32.778;34.994;2022-08-18T11:14:25;96810.22;;;29.41;52.60
44385;BME280;30101;32.778;34.994;2022-08-18T11:19:40;96795.09;;;29.32;52.54
44385;BME280;30101;32.778;34.994;2022-08-18T11:24:44;96794.03;;;29.36;52.79
44385;BME280;30101;32.778;34.994;2022-08-18T11:29:48;96790.56;;;29.39;52.62
44385;BME280;30101;32.778;34.994;2022-08-18T11:40:05;96784.63;;;29.37;52.83
44385;BME280;30101;32.778;34.994;2022-08-18T11:45:20;96788.63;;;29.24;52.88
44385;BME280;30101;32.778;34.994;2022-08-18T11:50:29;96790.28;;;29.13;53.10
44385;BME280;30101;32.778;34.994;2022-08-18T11:55:33;96792.75;;;29.02;53.62
44385;BME280;30101;32.778;34.994;2022-08-18T12:05:58;96789.19;;;28.86;53.68
44385;BME280;30101;32.778;34.994;2022-08-18T12:11:13;96783.22;;;28.84;53.69
44385;BME280;30101;32.778;34.994;2022-08-18T12:26:43;96783.66;;;28.70;54.16
44385;BME280;30101;32.778;34.994;2022-08-18T12:31:51;96780.59;;;28.59;54.20
44385;BME280;30101;32.778;34.994;2022-08-18T12:36:57;96790.00;;;28.58;54.53
44385;BME280;30101;32.778;34.994;2022-08-18T12:42:02;96787.50;;;28.53;54.84
44385;BME280;30101;32.778;34.994;2022-08-18T12:47:25;96788.09;;;28.46;54.71
44385;BME280;30101;32.778;34.994;2022-08-18T12:52:33;96778.78;;;28.35;55.12
44385;BME280;30101;32.778;34.994;2022-08-18T12:57:36;96785.75;;;28.33;55.16
44385;BME280;30101;32.778;34.994;2022-08-18T13:02:55;96784.75;;;28.25;55.33
44385;BME280;30101;32.778;34.994;2022-08-18T13:08:01;96779.59;;;28.23;55.38
44385;BME280;30101;32.778;34.994;2022-08-18T13:13:07;96789.00;;;28.22;55.52
44385;BME280;30101;32.778;34.994;2022-08-18T13:18:15;96777.19;;;28.22;55.46
44385;BME280;30101;32.778;34.994;2022-08-18T13:23:19;96788.53;;;28.20;55.66
44385;BME280;30101;32.778;34.994;2022-08-18T13:28:32;96782.03;;;28.13;55.85
44385;BME280;30101;32.778;34.994;2022-08-18T13:33:37;96779.72;;;28.15;56.13
44385;BME280;30101;32.778;34.994;2022-08-18T13:39:01;96776.31;;;28.18;55.87
44385;BME280;30101;32.778;34.994;2022-08-18T13:44:05;96777.34;;;28.13;56.07
44385;BME280;30101;32.778;34.994;2022-08-18T13:49:15;96784.34;;;28.11;55.84
44385;BME280;30101;32.778;34.994;2022-08-18T13:54:30;96770.41;;;28.04;55.74
44385;BME280;30101;32.778;34.994;2022-08-18T13:59:37;96771.81;;;27.98;56.25
44385;BME280;30101;32.778;34.994;2022-08-18T14:04:48;96768.38;;;27.88;56.37
44385;BME280;30101;32.778;34.994;2022-08-18T14:09:53;96767.72;;;27.79;56.75
44385;BME280;30101;32.778;34.994;2022-08-18T14:14:58;96765.31;;;27.78;57.03
44385;BME280;30101;32.778;34.994;2022-08-18T14:20:03;96771.06;;;27.73;57.06
44385;BME280;30101;32.778;34.994;2022-08-18T14:25:16;96761.44;;;27.66;57.28
44385;BME280;30101;32.778;34.994;2022-08-18T14:30:25;96757.41;;;27.64;57.17
44385;BME280;30101;32.778;34.994;2022-08-18T14:35:28;96753.09;;;27.63;57.41
44385;BME280;30101;32.778;34.994;2022-08-18T14:40:53;96758.91;;;27.61;57.39
44385;BME280;30101;32.778;34.994;2022-08-18T14:45:56;96761.31;;;27.51;57.57
44385;BME280;30101;32.778;34.994;2022-08-18T14:51:00;96763.63;;;27.36;57.74
44385;BME280;30101;32.778;34.994;2022-08-18T14:56:05;96768.97;;;27.21;58.16
44385;BME280;30101;32.778;34.994;2022-08-18T15:01:12;96767.59;;;27.14;58.59
44385;BME280;30101;32.778;34.994;2022-08-18T15:06:18;96767.03;;;27.09;58.51
44385;BME280;30101;32.778;34.994;2022-08-18T15:11:28;96759.03;;;27.04;58.82
44385;BME280;30101;32.778;34.994;2022-08-18T15:16:33;96765.16;;;27.01;59.08
44385;BME280;30101;32.778;34.994;2022-08-18T15:21:41;96770.31;;;27.02;59.05
44385;BME280;30101;32.778;34.994;2022-08-18T15:26:46;96773.38;;;27.01;59.01
44385;BME280;30101;32.778;34.994;2022-08-18T15:31:59;96767.53;;;26.90;59.26
44385;BME280;30101;32.778;34.994;2022-08-18T15:37:12;96769.59;;;26.81;59.01
44385;BME280;30101;32.778;34.994;2022-08-18T15:42:16;96766.72;;;26.77;59.67
44385;BME280;30101;32.778;34.994;2022-08-18T15:47:20;96766.16;;;26.72;59.95
44385;BME280;30101;32.778;34.994;2022-08-18T15:52:27;96767.03;;;26.63;59.85
44385;BME280;30101;32.778;34.994;2022-08-18T15:57:30;96766.69;;;26.53;60.31
44385;BME280;30101;32.778;34.994;2022-08-18T16:02:47;96770.28;;;26.45;60.44
44385;BME280;30101;32.778;34.994;2022-08-18T16:07:53;96768.41;;;26.36;60.72
44385;BME280;30101;32.778;34.994;2022-08-18T16:12:59;96762.53;;;26.26;60.68
44385;BME280;30101;32.778;34.994;2022-08-18T16:18:04;96771.63;;;26.18;61.29
44385;BME280;30101;32.778;34.994;2022-08-18T16:23:09;96763.50;;;26.09;61.36
44385;BME280;30101;32.778;34.994;2022-08-18T16:28:12;96778.53;;;26.03;61.33
44385;BME280;30101;32.778;34.994;2022-08-18T16:33:16;96776.00;;;25.98;61.57
44385;BME280;30101;32.778;34.994;2022-08-18T16:38:20;96781.81;;;25.96;62.07
44385;BME280;30101;32.778;34.994;2022-08-18T16:43:24;96784.59;;;25.88;61.86
44385;BME280;30101;32.778;34.994;2022-08-18T16:48:29;96790.72;;;25.85;62.18
44385;BME280;30101;32.778;34.994;2022-08-18T16:53:33;96796.06;;;25.81;62.37
44385;BME280;30101;32.778;34.994;2022-08-18T16:58:42;96796.38;;;25.79;62.02
44385;BME280;30101;32.778;34.994;2022-08-18T17:03:46;96807.31;;;25.79;62.49
44385;BME280;30101;32.778;34.994;2022-08-18T17:08:49;96810.06;;;25.79;62.54
44385;BME280;30101;32.778;34.994;2022-08-18T17:13:54;96812.81;;;25.79;62.31
44385;BME280;30101;32.778;34.994;2022-08-18T17:18:59;96815.53;;;25.79;62.45
44385;BME280;30101;32.778;34.994;2022-08-18T17:24:07;96824.53;;;25.80;62.28
44385;BME280;30101;32.778;34.994;2022-08-18T17:29:20;96828.09;;;25.72;62.86
44385;BME280;30101;32.778;34.994;2022-08-18T17:34:33;96831.03;;;25.67;62.53
44385;BME280;30101;32.778;34.994;2022-08-18T17:39:56;96830.06;;;25.63;62.66
44385;BME280;30101;32.778;34.994;2022-08-18T17:45:10;96835.41;;;25.59;62.58
44385;BME280;30101;32.778;34.994;2022-08-18T17:50:35;96835.25;;;25.55;62.95
44385;BME280;30101;32.778;34.994;2022-08-18T17:55:44;96834.31;;;25.51;63.24
44385;BME280;30101;32.778;34.994;2022-08-18T18:00:50;96833.38;;;25.47;63.01
44385;BME280;30101;32.778;34.994;2022-08-18T18:05:58;96835.16;;;25.43;62.89
44385;BME280;30101;32.778;34.994;2022-08-18T18:11:10;96836.13;;;25.39;63.44
44385;BME280;30101;32.778;34.994;2022-08-18T18:16:32;96836.34;;;25.34;63.15
44385;BME280;30101;32.778;34.994;2022-08-18T18:21:37;96836.63;;;25.32;63.07
44385;BME280;30101;32.778;34.994;2022-08-18T18:27:01;96835.84;;;25.32;63.02
44385;BME280;30101;32.778;34.994;2022-08-18T18:32:29;96838.75;;;25.26;63.21
44385;BME280;30101;32.778;34.994;2022-08-18T18:37:42;96832.47;;;25.26;63.23
44385;BME280;30101;32.778;34.994;2022-08-18T18:42:49;96828.03;;;25.21;63.56
44385;BME280;30101;32.778;34.994;2022-08-18T18:48:07;96825.59;;;25.20;63.29
44385;BME280;30101;32.778;34.994;2022-08-18T19:04:43;96817.13;;;25.13;63.89
44385;BME280;30101;32.778;34.994;2022-08-18T19:10:08;96822.28;;;25.06;63.66
44385;BME280;30101;32.778;34.994;2022-08-18T19:15:14;96827.88;;;25.00;64.13
44385;BME280;30101;32.778;34.994;2022-08-18T19:20:26;96818.88;;;25.00;64.05
44385;BME280;30101;32.778;34.994;2022-08-18T19:25:36;96828.88;;;24.96;64.41
44385;BME280;30101;32.778;34.994;2022-08-18T19:30:46;96823.59;;;24.91;64.65
44385;BME280;30101;32.778;34.994;2022-08-18T19:36:15;96826.16;;;24.87;64.63
44385;BME280;30101;32.778;34.994;2022-08-18T19:46:41;96815.56;;;24.86;64.95
44385;BME280;30101;32.778;34.994;2022-08-18T19:51:49;96816.03;;;24.88;65.11
44385;BME280;30101;32.778;34.994;2022-08-18T19:57:35;96813.47;;;24.91;64.65
44385;BME280;30101;32.778;34.994;2022-08-18T20:03:17;96831.13;;;24.94;64.83
44385;BME280;30101;32.778;34.994;2022-08-18T20:13:54;96816.81;;;24.97;65.33
44385;BME280;30101;32.778;34.994;2022-08-18T20:19:00;96826.75;;;25.01;65.09
44385;BME280;30101;32.778;34.994;2022-08-18T20:34:37;96808.97;;;24.95;65.17
44385;BME280;30101;32.778;34.994;2022-08-18T20:39:49;96806.69;;;24.97;65.23
44385;BME280;30101;32.778;34.994;2022-08-18T20:44:56;96815.81;;;25.01;65.14
44385;BME280;30101;32.778;34.994;2022-08-18T21:00:56;96801.72;;;24.99;65.20
44385;BME280;30101;32.778;34.994;2022-08-18T21:06:00;96806.53;;;24.94;65.29
44385;BME280;30101;32.778;34.994;2022-08-18T21:11:18;96805.44;;;24.86;64.94
44385;BME280;30101;32.778;34.994;2022-08-18T21:16:43;96796.13;;;24.87;65.34
44385;BME280;30101;32.778;34.994;2022-08-18T21:21:49;96785.53;;;24.86;64.98
44385;BME280;30101;32.778;34.994;2022-08-18T21:26:57;96790.03;;;24.82;65.47
44385;BME280;30101;32.778;34.994;2022-08-18T21:32:36;96786.22;;;24.74;65.43
44385;BME280;30101;32.778;34.994;2022-08-18T21:37:39;96782.03;;;24.68;65.36
44385;BME280;30101;32.778;34.994;2022-08-18T21:42:43;96780.28;;;24.63;65.60
44385;BME280;30101;32.778;34.994;2022-08-18T21:47:51;96775.81;;;24.59;65.87
44385;BME280;30101;32.778;34.994;2022-08-18T21:52:57;96779.03;;;24.52;65.62
44385;BME280;30101;32.778;34.994;2022-08-18T22:03:23;96766.19;;;24.44;66.08
44385;BME280;30101;32.778;34.994;2022-08-18T22:08:32;96765.09;;;24.36;66.13
44385;BME280;30101;32.778;34.994;2022-08-18T22:13:51;96765.22;;;24.31;65.99
44385;BME280;30101;32.778;34.994;2022-08-18T22:24:19;96766.03;;;24.32;66.18
44385;BME280;30101;32.778;34.994;2022-08-18T22:29:38;96776.94;;;24.32;66.37
44385;BME280;30101;32.778;34.994;2022-08-18T22:34:48;96763.94;;;24.29;66.38
44385;BME280;30101;32.778;34.994;2022-08-18T22:44:57;96771.16;;;24.25;66.39
44385;BME280;30101;32.778;34.994;2022-08-18T22:50:09;96764.91;;;24.24;66.79
44385;BME280;30101;32.778;34.994;2022-08-18T22:55:14;96765.38;;;24.26;66.39
44385;BME280;30101;32.778;34.994;2022-08-18T23:00:26;96771.66;;;24.27;66.44
44385;BME280;30101;32.778;34.994;2022-08-18T23:05:29;96769.56;;;24.23;66.55
44385;BME280;30101;32.778;34.994;2022-08-18T23:10:33;96768.78;;;24.23;66.80
44385;BME280;30101;32.778;34.994;2022-08-18T23:15:37;96773.91;;;24.25;66.68
44385;BME280;30101;32.778;34.994;2022-08-18T23:20:40;96766.84;;;24.23;66.86
44385;BME280;30101;32.778;34.994;2022-08-18T23:25:46;96765.25;;;24.22;66.90
44385;BME280;30101;32.778;34.994;2022-08-18T23:30:51;96760.91;;;24.21;67.00
44385;BME280;30101;32.778;34.994;2022-08-18T23:35:55;96763.13;;;24.19;66.86
44385;BME280;30101;32.778;34.994;2022-08-18T23:40:59;96753.34;;;24.18;66.74
44385;BME280;30101;32.778;34.994;2022-08-18T23:46:03;96755.63;;;24.16;67.25
44385;BME280;30101;32.778;34.994;2022-08-18T23:51:06;96744.88;;;24.11;66.92
44385;BME280;30101;32.778;34.994;2022-08-18T23:56:09;96741.50;;;24.14;66.91
